createdAt,value
2022-10-16T00:00:49.113Z,99.85
2022-10-16T00:03:15.733Z,99.44
2022-10-16T00:05:44.122Z,99.66
2022-10-16T00:08:12.360Z,99.36
2022-10-16T00:10:39.337Z,99.82
2022-10-16T00:13:06.584Z,99.83
2022-10-16T00:15:37.541Z,99.93
2022-10-16T00:18:05.557Z,100.00
2022-10-16T00:20:35.301Z,100.00
2022-10-16T00:23:02.003Z,100.00
2022-10-16T00:25:28.617Z,100.00
2022-10-16T00:27:55.376Z,100.00
2022-10-16T00:30:22.112Z,99.95
2022-10-16T00:32:48.775Z,100.00
2022-10-16T00:35:15.529Z,100.00
2022-10-16T00:37:42.184Z,100.00
2022-10-16T00:40:09.357Z,99.92
2022-10-16T00:42:35.962Z,100.00
2022-10-16T00:45:03.265Z,100.00
2022-10-16T00:47:32.838Z,100.00
2022-10-16T00:50:15.230Z,100.00
2022-10-16T00:52:44.541Z,100.00
2022-10-16T00:55:11.472Z,100.00
2022-10-16T00:57:40.217Z,100.00
2022-10-16T01:00:09.525Z,100.00
2022-10-16T01:02:36.410Z,100.00
2022-10-16T01:05:03.797Z,100.00
2022-10-16T01:07:56.976Z,100.00
2022-10-16T01:10:42.979Z,100.00
2022-10-16T01:13:21.718Z,100.00
2022-10-16T01:16:00.592Z,100.00
2022-10-16T01:18:36.044Z,100.00
2022-10-16T01:21:05.647Z,100.00
2022-10-16T01:23:48.711Z,100.00
2022-10-16T01:26:24.336Z,100.00
2022-10-16T01:29:09.441Z,100.00
2022-10-16T01:31:38.444Z,100.00
2022-10-16T01:34:11.066Z,100.00
2022-10-16T01:36:43.738Z,100.00
2022-10-16T01:39:12.232Z,100.00
2022-10-16T01:41:46.217Z,100.00
2022-10-16T01:44:22.979Z,100.00
2022-10-16T01:46:51.657Z,100.00
2022-10-16T01:49:19.116Z,100.00
2022-10-16T01:51:48.518Z,100.00
2022-10-16T01:54:17.462Z,100.00
2022-10-16T01:56:44.573Z,100.00
2022-10-16T01:59:13.985Z,100.00
2022-10-16T02:01:43.840Z,100.00
2022-10-16T02:04:20.270Z,100.00
2022-10-16T02:06:47.023Z,100.00
2022-10-16T02:09:13.974Z,100.00
2022-10-16T02:11:40.644Z,100.00
2022-10-16T02:14:08.033Z,100.00
2022-10-16T02:16:40.646Z,100.00
2022-10-16T02:19:08.178Z,100.00
2022-10-16T02:21:50.320Z,100.00
2022-10-16T02:24:36.518Z,100.00
2022-10-16T02:27:11.864Z,100.00
2022-10-16T02:29:45.810Z,100.00
2022-10-16T02:32:14.005Z,100.00
2022-10-16T02:34:41.021Z,100.00
2022-10-16T02:37:07.871Z,100.00
2022-10-16T02:39:34.928Z,100.00
2022-10-16T02:42:01.581Z,100.00
2022-10-16T02:44:28.223Z,100.00
2022-10-16T02:46:54.868Z,100.00
2022-10-16T02:49:21.546Z,100.00
2022-10-16T02:51:48.152Z,100.00
2022-10-16T02:54:14.838Z,100.00
2022-10-16T02:56:41.547Z,100.00
2022-10-16T02:59:08.175Z,100.00
2022-10-16T03:01:34.853Z,100.00
2022-10-16T03:04:01.528Z,100.00
2022-10-16T03:06:28.142Z,99.77
2022-10-16T03:08:54.779Z,99.62
2022-10-16T03:11:21.693Z,99.72
2022-10-16T03:13:48.302Z,99.86
2022-10-16T03:16:14.929Z,100.00
2022-10-16T03:18:41.566Z,100.00
2022-10-16T03:21:08.382Z,100.00
2022-10-16T03:23:35.019Z,100.00
2022-10-16T03:26:01.698Z,100.00
2022-10-16T03:28:28.393Z,100.00
2022-10-16T03:30:55.163Z,100.00
2022-10-16T03:33:21.765Z,100.00
2022-10-16T03:35:55.609Z,99.94
2022-10-16T03:38:23.585Z,100.00
2022-10-16T03:40:50.217Z,100.00
2022-10-16T03:43:16.977Z,100.00
2022-10-16T03:45:43.674Z,100.00
2022-10-16T03:48:10.426Z,100.00
2022-10-16T03:50:37.252Z,100.00
2022-10-16T03:53:04.078Z,100.00
2022-10-16T03:55:30.708Z,100.00
2022-10-16T03:57:57.320Z,100.00
2022-10-16T04:00:24.029Z,100.00
2022-10-16T04:02:50.669Z,99.86
2022-10-16T04:05:17.301Z,99.69
2022-10-16T04:07:43.993Z,98.95
2022-10-16T04:10:10.698Z,99.04
2022-10-16T04:12:37.497Z,98.88
2022-10-16T04:15:04.263Z,98.51
2022-10-16T04:17:30.929Z,98.20
2022-10-16T04:19:57.534Z,98.84
2022-10-16T04:22:24.188Z,98.62
2022-10-16T04:24:50.853Z,99.49
2022-10-16T04:27:17.515Z,99.06
2022-10-16T04:29:44.125Z,99.20
2022-10-16T04:32:10.830Z,99.74
2022-10-16T04:34:37.657Z,99.24
2022-10-16T04:37:04.285Z,99.43
2022-10-16T04:39:30.906Z,99.77
2022-10-16T04:41:57.540Z,99.89
2022-10-16T04:44:24.163Z,99.90
2022-10-16T04:46:53.813Z,100.00
2022-10-16T04:49:20.470Z,100.00
2022-10-16T04:51:47.084Z,100.00
2022-10-16T04:54:13.956Z,100.00
2022-10-16T04:56:51.535Z,100.00
2022-10-16T04:59:19.224Z,100.00
2022-10-16T05:01:46.314Z,100.00
2022-10-16T05:04:13.213Z,100.00
2022-10-16T05:06:39.973Z,100.00
2022-10-16T05:09:06.945Z,100.00
2022-10-16T05:11:33.620Z,100.00
2022-10-16T05:14:00.735Z,100.00
2022-10-16T05:16:27.554Z,100.00
2022-10-16T05:19:00.014Z,100.00
2022-10-16T05:21:36.822Z,100.00
2022-10-16T05:24:03.570Z,100.00
2022-10-16T05:26:30.181Z,100.00
2022-10-16T05:28:56.926Z,100.00
2022-10-16T05:31:23.669Z,100.00
2022-10-16T05:36:36.906Z,100.00
2022-10-16T05:39:04.089Z,100.00
2022-10-16T05:41:30.765Z,100.00
2022-10-16T05:43:57.390Z,100.00
2022-10-16T05:46:24.078Z,100.00
2022-10-16T05:48:54.269Z,100.00
2022-10-16T05:51:20.949Z,100.00
2022-10-16T05:53:47.631Z,100.00
2022-10-16T05:56:14.317Z,100.00
2022-10-16T05:58:45.599Z,100.00
2022-10-16T06:01:14.945Z,100.00
2022-10-16T06:03:42.154Z,100.00
2022-10-16T06:06:16.425Z,100.00
2022-10-16T06:08:44.166Z,100.00
2022-10-16T06:11:16.360Z,100.00
2022-10-16T06:13:43.684Z,100.00
2022-10-16T06:16:11.777Z,100.00
2022-10-16T06:18:38.424Z,100.00
2022-10-16T06:21:10.400Z,100.00
2022-10-16T06:23:37.245Z,100.00
2022-10-16T06:26:25.515Z,100.00
2022-10-16T06:28:52.174Z,100.00
2022-10-16T06:31:19.280Z,100.00
2022-10-16T06:33:48.015Z,100.00
2022-10-16T06:36:18.035Z,100.00
2022-10-16T06:38:45.263Z,100.00
2022-10-16T06:41:18.063Z,100.00
2022-10-16T06:43:48.048Z,100.00
2022-10-16T06:46:17.184Z,100.00
2022-10-16T06:48:44.053Z,100.00
2022-10-16T06:51:11.953Z,100.00
2022-10-16T06:53:54.860Z,100.00
2022-10-16T06:56:30.802Z,100.00
2022-10-16T06:58:57.571Z,100.00
2022-10-16T07:01:25.200Z,100.00
2022-10-16T07:03:52.188Z,100.00
2022-10-16T07:06:20.712Z,100.00
2022-10-16T07:08:49.016Z,100.00
2022-10-16T07:11:20.946Z,100.00
2022-10-16T07:13:52.567Z,100.00
2022-10-16T07:16:26.379Z,100.00
2022-10-16T07:18:59.148Z,100.00
2022-10-16T07:21:29.934Z,100.00
2022-10-16T07:24:02.471Z,100.00
2022-10-16T07:26:32.342Z,100.00
2022-10-16T07:28:59.441Z,100.00
2022-10-16T07:31:26.587Z,100.00
2022-10-16T07:33:53.419Z,100.00
2022-10-16T07:36:20.821Z,100.00
2022-10-16T07:38:48.461Z,100.00
2022-10-16T07:41:17.654Z,100.00
2022-10-16T07:43:52.445Z,100.00
2022-10-16T07:46:20.823Z,100.00
2022-10-16T07:48:49.186Z,100.00
2022-10-16T07:51:18.778Z,100.00
2022-10-16T07:53:45.460Z,100.00
2022-10-16T07:56:12.910Z,100.00
2022-10-16T07:58:40.163Z,100.00
2022-10-16T08:01:11.896Z,100.00
2022-10-16T08:03:38.721Z,100.00
2022-10-16T08:06:06.022Z,100.00
2022-10-16T08:08:32.841Z,100.00
2022-10-16T08:10:59.489Z,100.00
2022-10-16T08:13:27.588Z,100.00
2022-10-16T08:15:54.999Z,100.00
2022-10-16T08:18:21.676Z,100.00
2022-10-16T08:20:48.302Z,100.00
2022-10-16T08:23:15.166Z,100.00
2022-10-16T08:25:42.435Z,100.00
2022-10-16T08:28:10.960Z,100.00
2022-10-16T08:30:38.225Z,100.00
2022-10-16T08:33:05.061Z,100.00
2022-10-16T08:35:31.894Z,100.00
2022-10-16T08:37:58.544Z,100.00
2022-10-16T08:40:29.192Z,100.00
2022-10-16T08:43:22.111Z,100.00
2022-10-16T08:46:39.268Z,100.00
2022-10-16T08:49:10.811Z,100.00
2022-10-16T08:51:40.389Z,100.00
2022-10-16T08:54:31.580Z,100.00
2022-10-16T08:57:05.803Z,100.00
2022-10-16T08:59:32.533Z,100.00
2022-10-16T09:02:00.245Z,99.60
2022-10-16T09:04:37.316Z,98.80
2022-10-16T09:07:18.338Z,98.62
2022-10-16T09:10:03.794Z,98.82
2022-10-16T09:12:38.494Z,99.79
2022-10-16T09:15:26.601Z,99.92
2022-10-16T09:17:53.543Z,99.60
2022-10-16T09:20:41.790Z,98.65
2022-10-16T09:23:16.246Z,97.88
2022-10-16T09:25:45.555Z,97.92
2022-10-16T09:28:12.346Z,97.60
2022-10-16T09:30:40.546Z,97.06
2022-10-16T09:33:17.436Z,95.69
2022-10-16T09:35:54.877Z,95.34
2022-10-16T09:38:32.215Z,94.89
2022-10-16T09:41:11.536Z,94.43
2022-10-16T09:43:55.001Z,93.62
2022-10-16T09:46:36.991Z,93.17
2022-10-16T09:49:19.339Z,92.61
2022-10-16T09:51:46.281Z,92.84
2022-10-16T09:54:18.269Z,91.88
2022-10-16T09:56:47.447Z,90.68
2022-10-16T09:59:17.048Z,89.98
2022-10-16T10:01:52.042Z,90.47
2022-10-16T10:04:20.238Z,89.79
2022-10-16T10:06:55.515Z,90.50
2022-10-16T10:09:45.173Z,89.17
2022-10-16T10:12:26.992Z,89.30
2022-10-16T10:14:56.930Z,88.79
2022-10-16T10:17:25.710Z,88.74
2022-10-16T10:20:01.755Z,89.61
2022-10-16T10:22:46.887Z,90.19
2022-10-16T10:25:13.566Z,89.73
2022-10-16T10:27:55.026Z,89.54
2022-10-16T10:30:43.059Z,88.57
2022-10-16T10:33:27.737Z,88.19
2022-10-16T10:36:10.096Z,86.90
2022-10-16T10:39:01.789Z,86.30
2022-10-16T10:41:53.621Z,87.01
2022-10-16T10:44:36.963Z,85.44
2022-10-16T10:47:34.706Z,85.29
2022-10-16T10:50:23.141Z,84.30
2022-10-16T10:52:59.573Z,83.43
2022-10-16T10:55:50.429Z,82.50
2022-10-16T10:58:36.015Z,82.01
2022-10-16T11:01:14.598Z,83.36
2022-10-16T11:04:03.680Z,83.80
2022-10-16T11:06:36.654Z,82.29
2022-10-16T11:09:11.969Z,82.18
2022-10-16T11:11:56.365Z,80.47
2022-10-16T11:14:32.552Z,81.01
2022-10-16T11:17:21.060Z,80.66
2022-10-16T11:20:05.410Z,78.52
2022-10-16T11:22:36.426Z,77.59
2022-10-16T11:25:12.669Z,77.36
2022-10-16T11:27:43.087Z,75.68
2022-10-16T11:30:34.578Z,77.62
2022-10-16T11:33:01.238Z,75.49
2022-10-16T11:35:44.894Z,75.68
2022-10-16T11:38:17.177Z,75.67
2022-10-16T11:40:45.016Z,73.12
2022-10-16T11:43:16.833Z,71.36
2022-10-16T11:45:50.236Z,71.16
2022-10-16T11:48:33.196Z,70.44
2022-10-16T11:51:09.320Z,67.96
2022-10-16T11:53:46.626Z,67.63
2022-10-16T11:56:21.727Z,65.61
2022-10-16T11:58:54.572Z,65.75
2022-10-16T12:01:31.358Z,65.28
2022-10-16T12:04:13.229Z,63.10
2022-10-16T12:06:56.849Z,61.83
2022-10-16T12:09:42.651Z,60.85
2022-10-16T12:12:31.733Z,60.88
2022-10-16T12:15:29.903Z,60.72
2022-10-16T12:18:02.109Z,58.76
2022-10-16T12:20:33.650Z,57.84
2022-10-16T12:23:02.886Z,57.80
2022-10-16T12:25:33.829Z,57.88
2022-10-16T12:28:04.430Z,56.67
2022-10-16T12:30:35.787Z,57.53
2022-10-16T12:33:28.645Z,56.70
2022-10-16T12:35:56.165Z,56.33
2022-10-16T12:38:27.417Z,55.80
2022-10-16T12:41:11.944Z,55.59
2022-10-16T12:43:43.394Z,55.12
2022-10-16T12:46:10.010Z,55.21
2022-10-16T12:48:48.599Z,54.62
2022-10-16T12:51:30.044Z,54.16
2022-10-16T12:54:04.470Z,53.39
2022-10-16T12:59:20.980Z,53.08
2022-10-16T13:02:21.384Z,52.48
2022-10-16T13:05:05.305Z,52.69
2022-10-16T13:08:03.017Z,53.35
2022-10-16T13:10:48.321Z,51.94
2022-10-16T13:13:42.180Z,52.52
2022-10-16T13:16:23.927Z,52.74
2022-10-16T13:18:53.585Z,53.07
2022-10-16T13:21:49.589Z,53.39
2022-10-16T13:24:26.458Z,52.23
2022-10-16T13:27:09.812Z,51.77
2022-10-16T13:29:36.668Z,52.25
2022-10-16T13:32:10.377Z,52.25
2022-10-16T13:34:46.079Z,53.38
2022-10-16T13:37:20.941Z,52.02
2022-10-16T13:39:47.898Z,51.24
2022-10-16T13:42:28.133Z,49.60
2022-10-16T13:44:56.919Z,50.01
2022-10-16T13:47:29.486Z,49.11
2022-10-16T13:50:11.002Z,48.89
2022-10-16T13:52:39.142Z,48.23
2022-10-16T13:55:13.928Z,48.17
2022-10-16T13:57:41.156Z,47.87
2022-10-16T14:00:31.182Z,48.34
2022-10-16T14:03:04.876Z,47.68
2022-10-16T14:05:31.639Z,48.30
2022-10-16T14:07:58.682Z,49.02
2022-10-16T14:10:32.796Z,48.29
2022-10-16T14:13:04.733Z,49.13
2022-10-16T14:15:33.043Z,48.35
2022-10-16T14:18:00.250Z,48.10
2022-10-16T14:20:28.922Z,47.98
2022-10-16T14:23:17.861Z,47.68
2022-10-16T14:25:44.481Z,48.45
2022-10-16T14:28:11.029Z,48.30
2022-10-16T14:30:37.724Z,47.58
2022-10-16T14:33:41.106Z,47.93
2022-10-16T14:36:10.306Z,47.74
2022-10-16T14:38:38.317Z,47.07
2022-10-16T14:41:05.744Z,47.43
2022-10-16T14:43:39.021Z,47.50
2022-10-16T14:46:14.570Z,46.79
2022-10-16T14:48:51.629Z,46.83
2022-10-16T14:51:19.828Z,46.41
2022-10-16T14:53:47.280Z,46.96
2022-10-16T14:56:23.496Z,46.37
2022-10-16T14:58:51.536Z,46.96
2022-10-16T15:01:18.408Z,47.58
2022-10-16T15:03:45.259Z,48.84
2022-10-16T15:06:13.049Z,48.27
2022-10-16T15:08:40.253Z,49.73
2022-10-16T15:11:12.118Z,50.71
2022-10-16T15:13:38.717Z,50.23
2022-10-16T15:16:05.508Z,51.17
2022-10-16T15:18:32.209Z,51.04
2022-10-16T15:20:58.879Z,51.82
2022-10-16T15:25:54.844Z,53.71
2022-10-16T15:28:22.814Z,54.55
2022-10-16T15:30:58.478Z,55.70
2022-10-16T15:33:29.334Z,55.62
2022-10-16T15:35:56.055Z,56.21
2022-10-16T15:38:23.706Z,57.72
2022-10-16T15:40:50.598Z,58.47
2022-10-16T15:43:17.330Z,59.40
2022-10-16T15:45:43.950Z,60.27
2022-10-16T15:48:14.742Z,61.65
2022-10-16T15:50:42.010Z,62.42
2022-10-16T15:53:08.702Z,62.33
2022-10-16T15:55:37.426Z,64.59
2022-10-16T15:58:04.031Z,64.88
2022-10-16T16:00:30.686Z,64.78
2022-10-16T16:02:57.308Z,65.32
2022-10-16T16:05:24.014Z,66.17
2022-10-16T16:07:51.493Z,66.83
2022-10-16T16:10:18.739Z,67.53
2022-10-16T16:12:52.917Z,68.93
2022-10-16T16:15:23.121Z,69.19
2022-10-16T16:17:50.203Z,69.44
2022-10-16T16:20:16.964Z,69.79
2022-10-16T16:22:43.612Z,70.28
2022-10-16T16:25:10.614Z,71.59
2022-10-16T16:27:39.439Z,72.89
2022-10-16T16:30:16.679Z,73.27
2022-10-16T16:32:45.972Z,74.10
2022-10-16T16:35:12.653Z,73.57
2022-10-16T16:37:39.310Z,74.00
2022-10-16T16:40:06.333Z,74.88
2022-10-16T16:42:42.014Z,75.29
2022-10-16T16:45:09.283Z,75.05
2022-10-16T16:47:35.897Z,75.51
2022-10-16T16:50:05.923Z,77.10
2022-10-16T16:52:32.680Z,76.95
2022-10-16T16:54:59.312Z,77.61
2022-10-16T16:57:26.228Z,78.88
2022-10-16T16:59:53.229Z,78.50
2022-10-16T17:02:19.992Z,77.88
2022-10-16T17:04:46.645Z,77.78
2022-10-16T17:07:13.245Z,78.05
2022-10-16T17:09:40.983Z,79.75
2022-10-16T17:12:07.593Z,81.33
2022-10-16T17:14:34.399Z,80.64
2022-10-16T17:17:01.074Z,80.43
2022-10-16T17:19:27.919Z,80.95
2022-10-16T17:21:54.599Z,81.99
2022-10-16T17:24:21.678Z,80.90
2022-10-16T17:26:49.343Z,80.83
2022-10-16T17:29:18.148Z,81.46
2022-10-16T17:31:45.140Z,82.08
2022-10-16T17:34:12.816Z,81.49
2022-10-16T17:36:44.022Z,83.12
2022-10-16T17:39:13.370Z,82.54
2022-10-16T17:41:40.153Z,82.44
2022-10-16T17:44:07.299Z,82.80
2022-10-16T17:46:37.089Z,82.37
2022-10-16T17:49:06.938Z,82.38
2022-10-16T17:51:33.613Z,82.89
2022-10-16T17:54:01.167Z,84.05
2022-10-16T17:56:28.819Z,84.90
2022-10-16T17:58:59.947Z,84.00
2022-10-16T18:01:30.021Z,83.70
2022-10-16T18:04:07.394Z,84.30
2022-10-16T18:06:34.466Z,85.59
2022-10-16T18:09:02.258Z,85.86
2022-10-16T18:11:29.373Z,86.44
2022-10-16T18:13:57.499Z,85.35
2022-10-16T18:16:25.004Z,85.30
2022-10-16T18:18:51.681Z,85.38
2022-10-16T18:21:19.770Z,85.04
2022-10-16T18:23:51.052Z,84.85
2022-10-16T18:26:19.322Z,85.55
2022-10-16T18:28:46.077Z,86.20
2022-10-16T18:31:14.555Z,86.17
2022-10-16T18:33:44.301Z,85.67
2022-10-16T18:36:11.906Z,85.35
2022-10-16T18:38:38.745Z,85.34
2022-10-16T18:41:05.856Z,86.13
2022-10-16T18:43:34.617Z,85.98
2022-10-16T18:46:04.116Z,85.64
2022-10-16T18:48:31.152Z,86.04
2022-10-16T18:51:18.498Z,86.76
2022-10-16T18:53:49.130Z,86.34
2022-10-16T18:56:17.350Z,86.62
2022-10-16T18:58:45.042Z,87.45
2022-10-16T19:01:16.957Z,88.30
2022-10-16T19:03:44.043Z,87.66
2022-10-16T19:06:13.335Z,87.77
2022-10-16T19:08:40.817Z,87.27
2022-10-16T19:11:36.805Z,88.38
2022-10-16T19:14:09.761Z,88.63
2022-10-16T19:16:38.201Z,87.97
2022-10-16T19:19:09.614Z,88.08
2022-10-16T19:21:40.116Z,87.95
2022-10-16T19:24:07.633Z,88.16
2022-10-16T19:26:36.840Z,87.61
2022-10-16T19:29:07.158Z,87.02
2022-10-16T19:31:34.575Z,87.73
2022-10-16T19:34:03.397Z,88.79
2022-10-16T19:36:32.432Z,88.50
2022-10-16T19:39:01.225Z,88.68
2022-10-16T19:41:29.236Z,89.16
2022-10-16T19:43:55.945Z,88.56
2022-10-16T19:46:25.852Z,88.52
2022-10-16T19:49:01.208Z,88.60
2022-10-16T19:51:29.306Z,88.93
2022-10-16T19:53:57.956Z,89.16
2022-10-16T19:56:26.298Z,88.86
2022-10-16T19:58:54.757Z,88.16
2022-10-16T20:01:22.469Z,87.86
2022-10-16T20:03:50.336Z,88.59
2022-10-16T20:06:18.043Z,89.18
2022-10-16T20:08:46.694Z,88.78
2022-10-16T20:11:15.746Z,89.15
2022-10-16T20:13:42.657Z,89.44
2022-10-16T20:16:10.684Z,90.14
2022-10-16T20:18:38.219Z,90.37
2022-10-16T20:21:12.523Z,89.71
2022-10-16T20:23:39.696Z,89.20
2022-10-16T20:26:06.857Z,89.13
2022-10-16T20:28:33.688Z,88.64
2022-10-16T20:31:07.148Z,88.75
2022-10-16T20:33:33.825Z,89.36
2022-10-16T20:36:00.446Z,89.74
2022-10-16T20:38:27.064Z,89.20
2022-10-16T20:40:53.723Z,89.02
2022-10-16T20:43:20.673Z,88.99
2022-10-16T20:45:47.286Z,89.39
2022-10-16T20:48:14.432Z,89.14
2022-10-16T20:50:41.985Z,90.04
2022-10-16T20:53:08.977Z,90.73
2022-10-16T20:55:37.325Z,90.48
2022-10-16T20:58:05.476Z,90.35
2022-10-16T21:00:32.261Z,90.09
2022-10-16T21:02:58.946Z,90.44
2022-10-16T21:05:28.901Z,89.88
2022-10-16T21:07:55.992Z,90.48
2022-10-16T21:10:23.365Z,90.70
2022-10-16T21:12:54.567Z,90.47
2022-10-16T21:15:21.642Z,90.35
2022-10-16T21:17:48.277Z,90.34
2022-10-16T21:20:14.935Z,91.37
2022-10-16T21:22:41.638Z,91.33
2022-10-16T21:25:08.420Z,92.17
2022-10-16T21:27:39.087Z,91.88
2022-10-16T21:30:07.050Z,91.58
2022-10-16T21:32:39.045Z,91.25
2022-10-16T21:35:06.447Z,90.62
2022-10-16T21:37:33.820Z,91.44
2022-10-16T21:40:00.497Z,92.08
2022-10-16T21:42:27.378Z,91.90
2022-10-16T21:44:54.412Z,91.92
2022-10-16T21:47:21.143Z,92.34
2022-10-16T21:49:47.815Z,92.52
2022-10-16T21:52:14.548Z,92.23
2022-10-16T21:54:41.165Z,92.09
2022-10-16T21:57:07.826Z,92.06
2022-10-16T21:59:34.519Z,92.27
2022-10-16T22:02:03.215Z,93.47
2022-10-16T22:04:29.938Z,92.96
2022-10-16T22:06:56.632Z,92.28
2022-10-16T22:09:23.308Z,92.78
2022-10-16T22:11:50.994Z,92.52
2022-10-16T22:14:19.084Z,91.82
2022-10-16T22:16:46.762Z,91.59
2022-10-16T22:19:15.223Z,92.58
2022-10-16T22:21:43.816Z,93.31
2022-10-16T22:24:10.683Z,93.04
2022-10-16T22:26:38.478Z,92.87
2022-10-16T22:29:05.775Z,93.51
2022-10-16T22:31:32.922Z,93.39
2022-10-16T22:34:01.770Z,93.28
2022-10-16T22:36:28.827Z,92.99
2022-10-16T22:38:55.655Z,92.71
2022-10-16T22:41:22.621Z,92.28
2022-10-16T22:43:49.489Z,92.67
2022-10-16T22:46:27.004Z,93.06
2022-10-16T22:48:55.889Z,93.22
2022-10-16T22:51:22.996Z,92.78
2022-10-16T22:53:50.135Z,92.93
2022-10-16T22:56:18.293Z,92.44
2022-10-16T22:58:45.420Z,93.00
2022-10-16T23:01:14.746Z,93.56
2022-10-16T23:03:41.581Z,92.99
2022-10-16T23:06:08.223Z,92.61
2022-10-16T23:08:34.904Z,92.81
2022-10-16T23:11:05.676Z,92.63
2022-10-16T23:13:32.285Z,93.21
2022-10-16T23:15:58.911Z,93.32
2022-10-16T23:18:25.556Z,93.32
2022-10-16T23:20:52.192Z,93.45
2022-10-16T23:23:18.912Z,94.04
2022-10-16T23:25:49.182Z,94.22
2022-10-16T23:28:16.952Z,93.86
2022-10-16T23:30:43.574Z,93.72
2022-10-16T23:33:10.200Z,94.51
2022-10-16T23:35:39.961Z,94.64
2022-10-16T23:38:06.932Z,94.20
2022-10-16T23:40:33.691Z,94.51
2022-10-16T23:43:00.350Z,93.88
2022-10-16T23:45:26.984Z,93.26
2022-10-16T23:47:53.600Z,92.97
2022-10-16T23:50:20.241Z,93.41
2022-10-16T23:52:46.888Z,93.51
2022-10-16T23:55:13.602Z,93.59
2022-10-16T23:57:40.236Z,93.42
